Dunksburg, Missouri
Current Conditions -  °F | °C
As of 3:58 AM on Friday 19 Dec 2014 (Local Time) from KSZL Reporting Station
Moderate Fog Moderate Fog  
Wind Chill: 33°   Ceiling: 100
Heat Index: 33°   Visibility: 0.5mi
Dew Point: 32°   Wind: 3mph
Humidity: 97%   Direction: 40°NE
Pressure: 30.24"   Gusts: NA
Location:  38.9707°N, 93.4332°W
Report Text: KSZL 190958Z 04003KT 1/2SM R01/0900FT FG VV001 00/00 A3024 RMK AO2A SLP252 T00031001 $
Loading
Personal Weather Stations






























Interactive Weather Map New forecast layout! Learn more

10-Day Weather Forecast

Advertisements
Track Severe Weather on mobile